createdAt,value
2023-03-05T00:02:26.728Z,2.35
2023-03-05T00:04:56.124Z,2.41
2023-03-05T00:07:28.135Z,2.42
2023-03-05T00:09:58.027Z,2.33
2023-03-05T00:12:27.413Z,2.28
2023-03-05T00:14:56.798Z,2.27
2023-03-05T00:17:26.275Z,2.26
2023-03-05T00:19:57.095Z,2.35
2023-03-05T00:22:29.866Z,2.29
2023-03-05T00:24:59.161Z,2.31
2023-03-05T00:27:28.670Z,2.32
2023-03-05T00:29:58.108Z,2.31
2023-03-05T00:32:27.632Z,2.32
2023-03-05T00:34:57.026Z,2.38
2023-03-05T00:37:29.067Z,2.45
2023-03-05T00:39:58.627Z,2.37
2023-03-05T00:42:28.046Z,2.44
2023-03-05T00:44:57.396Z,2.31
2023-03-05T00:47:28.444Z,2.45
2023-03-05T00:49:57.802Z,2.41
2023-03-05T00:52:29.985Z,2.43
2023-03-05T00:54:59.597Z,2.34
2023-03-05T00:57:28.999Z,2.31
2023-03-05T00:59:58.372Z,2.32
2023-03-05T01:02:27.875Z,2.34
2023-03-05T01:04:57.296Z,2.34
2023-03-05T01:07:29.385Z,2.50
2023-03-05T01:09:58.808Z,2.47
2023-03-05T01:12:28.167Z,2.45
2023-03-05T01:14:57.542Z,2.47
2023-03-05T01:17:29.785Z,2.40
2023-03-05T01:19:59.312Z,2.37
2023-03-05T01:22:31.773Z,2.33
2023-03-05T01:25:01.150Z,2.34
2023-03-05T01:27:30.615Z,2.36
2023-03-05T01:30:00.011Z,2.36
2023-03-05T01:32:29.637Z,2.46
2023-03-05T01:34:59.078Z,2.41
2023-03-05T01:37:31.895Z,2.37
2023-03-05T01:40:01.367Z,2.47
2023-03-05T01:42:31.266Z,2.54
2023-03-05T01:45:06.901Z,2.40
2023-03-05T01:47:36.345Z,2.44
2023-03-05T01:50:07.135Z,2.44
2023-03-05T01:52:43.061Z,2.33
2023-03-05T01:55:16.431Z,2.51
2023-03-05T01:57:48.651Z,2.54
2023-03-05T02:00:20.866Z,2.56
2023-03-05T02:02:52.545Z,2.52
2023-03-05T02:05:27.196Z,2.61
2023-03-05T02:08:02.479Z,2.66
2023-03-05T02:10:34.721Z,2.65
2023-03-05T02:13:07.964Z,2.48
2023-03-05T02:15:38.248Z,2.47
2023-03-05T02:18:09.016Z,2.53
2023-03-05T02:20:47.580Z,2.53
2023-03-05T02:23:22.602Z,2.64
2023-03-05T02:25:52.192Z,2.72
2023-03-05T02:28:27.250Z,2.72
2023-03-05T02:30:57.139Z,2.63
2023-03-05T02:33:26.854Z,2.64
2023-03-05T02:35:56.249Z,2.67
2023-03-05T02:38:28.495Z,2.50
2023-03-05T02:40:57.919Z,2.60
2023-03-05T02:43:27.449Z,2.67
2023-03-05T02:45:57.023Z,2.60
2023-03-05T02:48:26.485Z,2.66
2023-03-05T02:50:56.765Z,2.67
2023-03-05T02:53:29.383Z,2.73
2023-03-05T02:55:59.241Z,2.65
2023-03-05T02:58:29.601Z,2.71
2023-03-05T03:00:59.151Z,2.72
2023-03-05T03:03:28.647Z,2.63
2023-03-05T03:05:58.042Z,2.69
2023-03-05T03:08:30.047Z,2.52
2023-03-05T03:10:59.434Z,2.45
2023-03-05T03:13:28.816Z,2.59
2023-03-05T03:16:04.741Z,2.62
2023-03-05T03:18:34.281Z,2.59
2023-03-05T03:21:04.163Z,2.51
2023-03-05T03:23:37.147Z,2.55
2023-03-05T03:26:07.227Z,2.55
2023-03-05T03:28:36.639Z,2.49
2023-03-05T03:31:06.304Z,2.59
2023-03-05T03:33:35.790Z,2.51
2023-03-05T03:36:06.763Z,2.48
2023-03-05T03:38:38.757Z,2.36
2023-03-05T03:41:09.537Z,2.33
2023-03-05T03:43:39.553Z,2.25
2023-03-05T03:46:09.389Z,2.22
2023-03-05T03:48:38.830Z,2.17
2023-03-05T03:51:10.323Z,2.20
2023-03-05T03:53:42.261Z,2.07
2023-03-05T03:56:11.644Z,2.20
2023-03-05T03:58:40.985Z,2.09
2023-03-05T04:01:10.491Z,2.12
2023-03-05T04:03:39.899Z,2.15
2023-03-05T04:06:09.828Z,2.21
2023-03-05T04:08:42.181Z,2.30
2023-03-05T04:11:12.217Z,2.33
2023-03-05T04:13:41.604Z,2.30
2023-03-05T04:16:11.134Z,2.31
2023-03-05T04:18:40.622Z,2.23
2023-03-05T04:21:10.236Z,2.22
2023-03-05T04:23:42.881Z,2.32
2023-03-05T04:26:12.296Z,2.26
2023-03-05T04:28:41.852Z,2.34
2023-03-05T04:31:11.250Z,2.35
2023-03-05T04:33:40.633Z,2.32
2023-03-05T04:36:10.823Z,2.34
2023-03-05T04:38:42.786Z,2.40
2023-03-05T04:41:12.215Z,2.35
2023-03-05T04:43:41.614Z,2.41
2023-03-05T04:46:11.229Z,2.32
2023-03-05T04:48:40.823Z,2.33
2023-03-05T04:51:10.241Z,2.32
2023-03-05T04:53:39.681Z,2.31
2023-03-05T04:56:11.872Z,2.37
2023-03-05T04:58:41.286Z,2.35
2023-03-05T05:01:10.825Z,2.36
2023-03-05T05:03:40.426Z,2.39
2023-03-05T05:06:10.059Z,2.33
2023-03-05T05:08:39.740Z,2.30
2023-03-05T05:11:16.619Z,2.33
2023-03-05T05:13:45.987Z,2.27
2023-03-05T05:16:16.244Z,2.34
2023-03-05T05:18:45.669Z,2.26
2023-03-05T05:21:18.588Z,2.27
2023-03-05T05:23:48.034Z,2.29
2023-03-05T05:26:20.092Z,2.24
2023-03-05T05:28:49.555Z,2.23
2023-03-05T05:31:20.340Z,2.19
2023-03-05T05:33:50.124Z,2.27
2023-03-05T05:36:22.414Z,2.26
2023-03-05T05:38:51.916Z,2.31
2023-03-05T05:41:24.172Z,2.34
2023-03-05T05:43:53.809Z,2.32
2023-03-05T05:46:24.789Z,2.26
2023-03-05T05:48:54.368Z,2.37
2023-03-05T05:51:25.916Z,2.42
2023-03-05T05:53:55.639Z,2.37
2023-03-05T05:56:27.856Z,2.39
2023-03-05T05:58:57.544Z,2.38
2023-03-05T06:01:29.186Z,2.30
2023-03-05T06:03:58.830Z,2.34
2023-03-05T06:06:29.533Z,2.26
2023-03-05T06:08:59.547Z,2.25
2023-03-05T06:11:32.274Z,2.38
2023-03-05T06:14:02.660Z,2.49
2023-03-05T06:16:32.727Z,2.47
2023-03-05T06:19:04.579Z,2.51
2023-03-05T06:21:34.824Z,2.51
2023-03-05T06:24:04.269Z,2.57
2023-03-05T06:26:36.309Z,2.54
2023-03-05T06:29:06.330Z,2.59
2023-03-05T06:31:37.350Z,2.62
2023-03-05T06:34:07.408Z,2.62
2023-03-05T06:36:36.806Z,2.45
2023-03-05T06:39:06.790Z,2.46
2023-03-05T06:41:38.807Z,2.56
2023-03-05T06:44:08.474Z,2.59
2023-03-05T06:46:40.050Z,2.57
2023-03-05T06:49:09.823Z,2.58
2023-03-05T06:51:41.092Z,2.49
2023-03-05T06:54:12.400Z,2.54
2023-03-05T06:56:46.576Z,2.73
2023-03-05T06:59:17.616Z,2.84
2023-03-05T07:01:47.929Z,2.84
2023-03-05T07:04:18.749Z,2.76
2023-03-05T07:06:48.185Z,2.86
2023-03-05T07:09:18.439Z,3.01
2023-03-05T07:11:50.369Z,3.17
2023-03-05T07:14:19.790Z,3.15
2023-03-05T07:16:50.341Z,3.07
2023-03-05T07:19:20.070Z,3.09
2023-03-05T07:21:49.446Z,3.19
2023-03-05T07:24:18.837Z,3.13
2023-03-05T07:26:50.793Z,3.27
2023-03-05T07:29:20.201Z,3.36
2023-03-05T07:31:49.588Z,3.37
2023-03-05T07:34:18.995Z,3.47
2023-03-05T07:36:48.594Z,3.61
2023-03-05T07:39:19.119Z,3.26
2023-03-05T07:41:51.806Z,3.25
2023-03-05T07:44:29.154Z,3.34
2023-03-05T07:46:58.549Z,3.22
2023-03-05T07:49:27.939Z,3.37
2023-03-05T07:51:57.314Z,3.58
2023-03-05T07:54:26.740Z,3.64
2023-03-05T07:56:59.713Z,3.53
2023-03-05T07:59:29.112Z,3.67
2023-03-05T08:01:58.512Z,3.38
2023-03-05T08:04:29.990Z,3.28
2023-03-05T08:06:59.459Z,3.20
2023-03-05T08:09:28.913Z,3.25
2023-03-05T08:12:00.897Z,3.70
2023-03-05T08:14:30.469Z,3.73
2023-03-05T08:16:59.827Z,3.46
2023-03-05T08:19:29.748Z,3.31
2023-03-05T08:21:59.107Z,3.43
2023-03-05T08:24:29.833Z,3.45
2023-03-05T08:27:01.846Z,3.25
2023-03-05T08:29:31.199Z,3.25
2023-03-05T08:32:00.620Z,3.32
2023-03-05T08:34:29.968Z,3.21
2023-03-05T08:36:59.577Z,3.15
2023-03-05T08:39:30.227Z,3.24
2023-03-05T08:42:02.157Z,3.38
2023-03-05T08:44:31.714Z,3.39
2023-03-05T08:47:01.111Z,3.52
2023-03-05T08:49:30.539Z,3.57
2023-03-05T08:51:59.945Z,3.55
2023-03-05T08:54:29.269Z,3.47
2023-03-05T08:56:58.803Z,3.26
2023-03-05T08:59:30.738Z,2.97
2023-03-05T09:02:03.077Z,3.05
2023-03-05T09:04:32.544Z,3.07
2023-03-05T09:07:01.902Z,3.17
2023-03-05T09:09:33.011Z,3.27
2023-03-05T09:12:02.671Z,3.34
2023-03-05T09:14:34.679Z,3.46
2023-03-05T09:17:05.218Z,3.59
2023-03-05T09:19:34.662Z,3.45
2023-03-05T09:22:04.055Z,3.35
2023-03-05T09:24:34.382Z,3.20
2023-03-05T09:27:03.800Z,3.00
2023-03-05T09:29:35.770Z,3.21
2023-03-05T09:32:05.238Z,3.50
2023-03-05T09:34:34.697Z,3.67
2023-03-05T09:37:05.632Z,3.82
2023-03-05T09:39:35.017Z,4.13
2023-03-05T09:42:30.465Z,4.21
2023-03-05T09:45:18.863Z,4.60
2023-03-05T09:47:55.555Z,4.36
2023-03-05T09:50:40.474Z,4.43
2023-03-05T09:53:19.035Z,4.48
2023-03-05T09:55:52.162Z,4.86
2023-03-05T09:58:31.132Z,4.94
2023-03-05T10:01:06.149Z,5.17
2023-03-05T10:03:48.012Z,4.76
2023-03-05T10:06:24.012Z,5.23
2023-03-05T10:08:57.824Z,4.92
2023-03-05T10:11:42.328Z,5.23
2023-03-05T10:14:17.349Z,5.64
2023-03-05T10:17:00.673Z,5.60
2023-03-05T10:19:49.080Z,5.34
2023-03-05T10:22:23.452Z,5.39
2023-03-05T10:25:05.588Z,5.36
2023-03-05T10:27:45.590Z,5.50
2023-03-05T10:30:32.736Z,5.46
2023-03-05T10:33:13.937Z,5.38
2023-03-05T10:36:05.340Z,5.60
2023-03-05T10:38:59.934Z,5.67
2023-03-05T10:41:35.704Z,5.94
2023-03-05T10:44:12.063Z,5.74
2023-03-05T10:46:43.020Z,5.98
2023-03-05T10:49:22.513Z,6.62
2023-03-05T10:51:55.660Z,6.11
2023-03-05T10:54:29.922Z,6.02
2023-03-05T10:57:07.668Z,6.33
2023-03-05T10:59:37.377Z,5.79
2023-03-05T11:02:10.095Z,6.13
2023-03-05T11:04:42.769Z,6.53
2023-03-05T11:07:37.088Z,6.60
2023-03-05T11:10:18.998Z,7.14
2023-03-05T11:12:49.895Z,6.49
2023-03-05T11:15:32.469Z,6.91
2023-03-05T11:18:24.185Z,6.99
2023-03-05T11:21:10.871Z,6.35
2023-03-05T11:23:40.684Z,6.10
2023-03-05T11:26:24.435Z,6.68
2023-03-05T11:29:01.920Z,7.34
2023-03-05T11:31:33.810Z,7.09
2023-03-05T11:34:05.215Z,7.68
2023-03-05T11:36:38.885Z,8.38
2023-03-05T11:39:14.726Z,8.56
2023-03-05T11:41:47.519Z,7.62
2023-03-05T11:44:17.830Z,7.23
2023-03-05T11:46:50.320Z,7.15
2023-03-05T11:49:24.230Z,6.97
2023-03-05T11:52:08.222Z,6.58
2023-03-05T11:54:45.585Z,6.14
2023-03-05T11:57:17.165Z,6.02
2023-03-05T11:59:47.114Z,6.47
2023-03-05T12:02:23.257Z,6.42
2023-03-05T12:04:53.946Z,6.44
2023-03-05T12:07:33.638Z,6.20
2023-03-05T12:10:03.748Z,5.68
2023-03-05T12:12:49.655Z,5.33
2023-03-05T12:15:35.305Z,5.24
2023-03-05T12:18:20.722Z,5.11
2023-03-05T12:20:58.176Z,5.61
2023-03-05T12:23:30.635Z,6.18
2023-03-05T12:26:03.435Z,5.62
2023-03-05T12:28:59.565Z,5.50
2023-03-05T12:31:38.014Z,6.24
2023-03-05T12:34:38.035Z,6.69
2023-03-05T12:37:07.571Z,7.40
2023-03-05T12:40:01.067Z,8.32
2023-03-05T12:42:48.058Z,7.14
2023-03-05T12:45:45.521Z,6.35
2023-03-05T12:48:45.511Z,6.07
2023-03-05T12:51:36.407Z,5.81
2023-03-05T12:54:34.106Z,6.56
2023-03-05T12:57:09.280Z,7.39
2023-03-05T12:59:46.366Z,7.25
2023-03-05T13:02:29.937Z,7.20
2023-03-05T13:05:03.575Z,6.82
2023-03-05T13:07:33.098Z,7.11
2023-03-05T13:10:03.013Z,6.80
2023-03-05T13:12:35.124Z,7.24
2023-03-05T13:15:06.882Z,7.07
2023-03-05T13:17:44.427Z,6.94
2023-03-05T13:20:33.935Z,7.27
2023-03-05T13:23:07.158Z,7.50
2023-03-05T13:25:36.596Z,6.86
2023-03-05T13:28:14.393Z,7.44
2023-03-05T13:30:48.233Z,7.68
2023-03-05T13:33:21.512Z,7.35
2023-03-05T13:35:52.890Z,6.46
2023-03-05T13:38:31.610Z,6.47
2023-03-05T13:41:06.736Z,6.24
2023-03-05T13:43:45.636Z,6.11
2023-03-05T13:46:15.924Z,5.93
2023-03-05T13:48:45.462Z,6.01
2023-03-05T13:51:14.968Z,6.27
2023-03-05T13:53:44.446Z,6.63
2023-03-05T13:56:17.997Z,7.71
2023-03-05T13:58:54.097Z,7.17
2023-03-05T14:01:32.303Z,8.42
2023-03-05T14:04:06.968Z,9.57
2023-03-05T14:06:43.175Z,7.94
2023-03-05T14:09:22.682Z,6.73
2023-03-05T14:12:00.779Z,6.66
2023-03-05T14:14:39.202Z,7.00
2023-03-05T14:17:25.986Z,7.20
2023-03-05T14:19:55.590Z,7.65
2023-03-05T14:22:33.947Z,8.61
2023-03-05T14:25:03.486Z,8.65
2023-03-05T14:27:36.138Z,8.86
2023-03-05T14:30:20.168Z,8.94
2023-03-05T14:32:50.057Z,8.81
2023-03-05T14:35:21.958Z,8.74
2023-03-05T14:37:54.287Z,8.47
2023-03-05T14:40:26.016Z,8.53
2023-03-05T14:42:57.265Z,7.96
2023-03-05T14:45:31.664Z,7.75
2023-03-05T14:48:03.856Z,7.19
2023-03-05T14:50:36.470Z,7.57
2023-03-05T14:53:10.025Z,6.96
2023-03-05T14:55:39.861Z,6.63
2023-03-05T14:58:15.362Z,6.68
2023-03-05T15:00:50.077Z,7.19
2023-03-05T15:03:21.670Z,7.90
2023-03-05T15:05:53.760Z,7.89
2023-03-05T15:08:25.268Z,7.72
2023-03-05T15:10:55.355Z,7.23
2023-03-05T15:13:25.268Z,7.13
2023-03-05T15:15:57.447Z,6.76
2023-03-05T15:18:27.047Z,6.73
2023-03-05T15:20:57.094Z,6.71
2023-03-05T15:23:29.057Z,6.37
2023-03-05T15:25:58.472Z,6.28
2023-03-05T15:28:27.859Z,6.09
2023-03-05T15:31:00.548Z,6.08
2023-03-05T15:33:31.195Z,6.03
2023-03-05T15:36:00.952Z,6.03
2023-03-05T15:38:30.620Z,6.15
2023-03-05T15:41:01.785Z,6.02
2023-03-05T15:43:31.484Z,5.59
2023-03-05T15:46:03.539Z,5.58
2023-03-05T15:48:32.949Z,5.61
2023-03-05T15:51:02.368Z,5.79
2023-03-05T15:53:31.770Z,5.99
2023-03-05T15:56:01.177Z,6.29
2023-03-05T15:58:30.589Z,6.16
2023-03-05T16:00:59.999Z,6.02
2023-03-05T16:03:31.972Z,6.02
2023-03-05T16:06:01.390Z,6.02
2023-03-05T16:08:31.138Z,6.02
2023-03-05T16:11:00.855Z,5.84
2023-03-05T16:13:32.617Z,5.78
2023-03-05T16:16:03.457Z,5.67
2023-03-05T16:18:39.167Z,5.71
2023-03-05T16:21:08.770Z,5.69
2023-03-05T16:23:38.138Z,5.59
2023-03-05T16:26:08.051Z,5.47
2023-03-05T16:28:37.658Z,5.58
2023-03-05T16:31:07.752Z,5.52
2023-03-05T16:33:39.760Z,5.34
2023-03-05T16:36:26.735Z,5.24
2023-03-05T16:38:58.800Z,5.11
2023-03-05T16:41:29.316Z,5.02
2023-03-05T16:43:59.440Z,5.08
2023-03-05T16:46:32.374Z,5.04
2023-03-05T16:49:06.032Z,4.99
2023-03-05T16:51:35.550Z,5.05
2023-03-05T16:54:05.349Z,5.01
2023-03-05T16:56:35.143Z,5.01
2023-03-05T16:59:04.509Z,5.01
2023-03-05T17:01:33.908Z,5.06
2023-03-05T17:04:06.037Z,5.07
2023-03-05T17:06:35.964Z,5.14
2023-03-05T17:09:06.644Z,5.08
2023-03-05T17:11:36.140Z,5.05
2023-03-05T17:14:05.950Z,4.91
2023-03-05T17:16:35.953Z,4.81
2023-03-05T17:19:08.107Z,4.84
2023-03-05T17:21:37.643Z,4.76
2023-03-05T17:24:07.066Z,4.59
2023-03-05T17:26:36.922Z,4.46
2023-03-05T17:29:07.337Z,4.51
2023-03-05T17:31:37.194Z,4.40
2023-03-05T17:34:09.227Z,4.44
2023-03-05T17:36:39.441Z,4.45
2023-03-05T17:39:08.933Z,4.45
2023-03-05T17:41:38.411Z,4.48
2023-03-05T17:44:08.006Z,4.51
2023-03-05T17:46:37.488Z,4.47
2023-03-05T17:49:09.480Z,4.49
2023-03-05T17:51:39.085Z,4.45
2023-03-05T17:54:08.559Z,4.48
2023-03-05T17:56:37.963Z,4.52
2023-03-05T17:59:07.441Z,4.47
2023-03-05T18:01:37.131Z,4.47
2023-03-05T18:04:10.326Z,4.44
2023-03-05T18:06:39.909Z,4.47
2023-03-05T18:09:09.642Z,4.45
2023-03-05T18:11:39.527Z,4.41
2023-03-05T18:14:08.913Z,4.43
2023-03-05T18:16:38.305Z,4.31
2023-03-05T18:19:10.835Z,4.38
2023-03-05T18:21:42.129Z,4.39
2023-03-05T18:24:12.231Z,4.39
2023-03-05T18:26:41.631Z,4.08
2023-03-05T18:29:11.549Z,4.09
2023-03-05T18:31:40.894Z,4.15
2023-03-05T18:34:12.846Z,4.23
2023-03-05T18:36:42.261Z,4.21
2023-03-05T18:39:15.766Z,4.31
2023-03-05T18:41:45.310Z,4.24
2023-03-05T18:44:15.079Z,4.22
2023-03-05T18:46:44.529Z,4.29
2023-03-05T18:49:17.157Z,4.20
2023-03-05T18:51:46.713Z,4.13
2023-03-05T18:54:17.136Z,4.09
2023-03-05T18:56:47.299Z,3.97
2023-03-05T18:59:17.165Z,4.08
2023-03-05T19:01:47.237Z,4.18
2023-03-05T19:04:19.744Z,4.03
2023-03-05T19:06:49.676Z,4.10
2023-03-05T19:09:29.112Z,4.00
2023-03-05T19:11:58.959Z,4.08
2023-03-05T19:14:28.562Z,4.06
2023-03-05T19:16:57.996Z,4.14
2023-03-05T19:19:32.440Z,4.10
2023-03-05T19:22:02.076Z,4.09
2023-03-05T19:24:34.454Z,4.03
2023-03-05T19:27:10.248Z,4.02
2023-03-05T19:29:40.904Z,3.93
2023-03-05T19:32:12.908Z,3.97
2023-03-05T19:34:45.241Z,3.90
2023-03-05T19:37:15.063Z,3.85
2023-03-05T19:39:45.057Z,3.89
2023-03-05T19:42:15.153Z,3.91
2023-03-05T19:44:44.558Z,3.83
2023-03-05T19:47:14.300Z,3.88
2023-03-05T19:49:46.264Z,3.88
2023-03-05T19:52:15.816Z,3.89
2023-03-05T19:54:45.227Z,3.84
2023-03-05T19:57:15.118Z,3.82
2023-03-05T19:59:46.130Z,3.94
2023-03-05T20:02:19.378Z,3.86
2023-03-05T20:04:52.113Z,3.80
2023-03-05T20:07:21.513Z,3.78
2023-03-05T20:09:53.180Z,3.77
2023-03-05T20:12:22.613Z,3.70
2023-03-05T20:14:51.987Z,3.68
2023-03-05T20:17:21.460Z,3.65
2023-03-05T20:19:55.401Z,3.63
2023-03-05T20:22:24.808Z,3.64
2023-03-05T20:24:54.216Z,3.66
2023-03-05T20:27:23.703Z,3.71
2023-03-05T20:29:53.114Z,3.65
2023-03-05T20:32:22.576Z,3.61
2023-03-05T20:34:56.225Z,3.63
2023-03-05T20:37:31.497Z,3.60
2023-03-05T20:40:00.896Z,3.60
2023-03-05T20:42:30.291Z,3.54
2023-03-05T20:44:59.688Z,3.54
2023-03-05T20:47:37.467Z,3.54
2023-03-05T20:50:11.422Z,3.46
2023-03-05T20:52:41.640Z,3.50
2023-03-05T20:55:12.365Z,3.47
2023-03-05T20:57:42.690Z,3.49
2023-03-05T21:00:13.754Z,3.46
2023-03-05T21:02:43.211Z,3.46
2023-03-05T21:05:15.409Z,3.43
2023-03-05T21:07:44.830Z,3.47
2023-03-05T21:10:16.426Z,3.50
2023-03-05T21:12:46.158Z,3.47
2023-03-05T21:15:17.634Z,3.54
2023-03-05T21:17:47.394Z,3.56
2023-03-05T21:20:23.294Z,3.59
2023-03-05T21:22:52.736Z,3.59
2023-03-05T21:25:27.668Z,3.59
2023-03-05T21:27:59.035Z,3.66
2023-03-05T21:30:31.633Z,3.67
2023-03-05T21:33:02.318Z,3.71
2023-03-05T21:35:35.291Z,3.67
2023-03-05T21:38:06.435Z,3.63
2023-03-05T21:40:37.020Z,3.67
2023-03-05T21:43:06.655Z,3.60
2023-03-05T21:45:36.034Z,3.57
2023-03-05T21:48:05.841Z,3.61
2023-03-05T21:50:38.374Z,3.72
2023-03-05T21:53:08.005Z,3.72
2023-03-05T21:55:46.494Z,3.82
2023-03-05T21:58:16.217Z,4.04
2023-03-05T22:00:45.691Z,4.11
2023-03-05T22:03:15.188Z,3.89
2023-03-05T22:05:47.773Z,3.89
2023-03-05T22:08:17.222Z,3.82
2023-03-05T22:10:46.651Z,3.79
2023-03-05T22:13:17.902Z,3.75
2023-03-05T22:15:48.798Z,3.76
2023-03-05T22:18:20.661Z,3.70
2023-03-05T22:20:53.217Z,3.70
2023-03-05T22:23:24.815Z,3.76
2023-03-05T22:25:59.044Z,3.66
2023-03-05T22:28:28.625Z,3.62
2023-03-05T22:30:58.418Z,3.59
2023-03-05T22:33:28.321Z,3.57
2023-03-05T22:36:00.501Z,3.58
2023-03-05T22:38:29.953Z,3.51
2023-03-05T22:40:59.523Z,3.52
2023-03-05T22:43:28.942Z,3.46
2023-03-05T22:45:58.379Z,3.46
2023-03-05T22:48:27.911Z,3.45
2023-03-05T22:50:59.972Z,3.39
2023-03-05T22:53:29.615Z,3.37
2023-03-05T22:55:59.228Z,3.43
2023-03-05T22:58:28.734Z,3.43
2023-03-05T23:00:58.218Z,3.40
2023-03-05T23:03:27.863Z,3.41
2023-03-05T23:06:00.063Z,3.34
2023-03-05T23:08:30.573Z,3.35
2023-03-05T23:10:59.997Z,3.32
2023-03-05T23:13:29.433Z,3.31
2023-03-05T23:15:58.993Z,3.31
2023-03-05T23:18:28.780Z,3.28
2023-03-05T23:21:00.940Z,3.34
2023-03-05T23:23:30.405Z,3.30
2023-03-05T23:25:59.760Z,3.30
2023-03-05T23:28:29.177Z,3.29
2023-03-05T23:31:00.234Z,3.33
2023-03-05T23:33:29.840Z,3.25
2023-03-05T23:36:02.900Z,3.31
2023-03-05T23:38:33.711Z,3.24
2023-03-05T23:41:03.639Z,3.29
2023-03-05T23:43:33.350Z,3.29
2023-03-05T23:46:02.987Z,3.37
2023-03-05T23:48:32.955Z,3.31
2023-03-05T23:51:05.002Z,3.31
2023-03-05T23:53:34.416Z,3.34
2023-03-05T23:56:04.167Z,3.24
2023-03-05T23:58:33.621Z,3.29
